Knossos Palace — SYQO — position and weather

sailwx.info

Track history (hours):
 
Tides and Currents Weather Stations Pressure Air Temp Water Temp Dewpoint Dewpoint Depression Visibility Wind Speed Wind Dir Waves Ship Positions

Knossos Palace

Last reported at 2016-Jul-25 01:00 UTC. Time now 2016-Jul-25 06:14 UTC.
Position N 36°06' E 024°36'.

Length 214 m; beam 26.4 m; draft 7.3 m.

Type: Ship. MMSI: 237641000.

Wind from 320 at 22 knots

Barometer 1007.9 mb
Air temperature 26.0 ° C
Visibility: greater than 10.8 NM
Dewpoint 21.8 ° C
Water temperature 26.0 ° C

Date/timePositionNaut miles runAvg speedWind from/ knotsBaromVisibWave heightAir tempDewpointWater temp
2016-Jul-25 01:00N 36°06' E 024°36'7821.0 320 / 221007.910.8 26.021.826.0
2016-Jul-24 21:16N 37°17' E 023°55'1521.1
2016-Jul-24 20:33N 37°31' E 023°47'2121.3
2016-Jul-24 19:33N 37°50' E 023°37'6 6.4
2016-Jul-24 18:33N 37°57' E 023°38'0 0.0
2016-Jul-24 17:33N 37°57' E 023°38'0 0.0
2016-Jul-24 16:33N 37°57' E 023°38'0 0.2
2016-Jul-24 15:33N 37°56' E 023°38'1717.1
2016-Jul-24 14:33N 37°40' E 023°46'3623.1
2016-Jul-24 13:00N 37°06' E 024°00'67 5.5 030 / 201008.910.8 27.519.627.0
2016-Jul-24 01:00N 36°06' E 024°36'7921.0 290 / 121010.910.8 25.022.226.0
2016-Jul-23 21:13N 37°18' E 023°54'1420.9
2016-Jul-23 20:33N 37°31' E 023°47'2120.7
2016-Jul-23 19:33N 37°50' E 023°37'7 7.2
2016-Jul-23 18:34N 37°57' E 023°38'0 0.0
2016-Jul-23 17:31N 37°57' E 023°38'0 0.0
2016-Jul-23 16:31N 37°57' E 023°38'0 0.0
2016-Jul-23 15:33N 37°57' E 023°38'1616.5
2016-Jul-23 14:34N 37°41' E 023°45'2524.8
2016-Jul-23 13:33N 37°18' E 023°55'7 0.4
2016-Jul-22 21:33N 37°11' E 023°57'2121.0
2016-Jul-22 20:33N 37°30' E 023°48'2120.9
2016-Jul-22 19:33N 37°49' E 023°37'7 7.4
2016-Jul-22 18:34N 37°57' E 023°38'0 0.0
2016-Jul-22 17:31N 37°57' E 023°38'0 0.0
2016-Jul-22 16:31N 37°57' E 023°38'0 0.0
2016-Jul-22 15:31N 37°57' E 023°38'0 0.0
2016-Jul-22 14:31N 37°57' E 023°38'0 0.0
2016-Jul-22 13:32N 37°57' E 023°38'0 0.0
2016-Jul-22 12:31N 37°57' E 023°38'0 0.0
2016-Jul-22 11:31N 37°57' E 023°38'0 0.0
2016-Jul-22 10:31N 37°57' E 023°38'0 0.0
2016-Jul-22 09:31N 37°57' E 023°38'0 0.0
2016-Jul-22 08:31N 37°57' E 023°38'0 0.0
2016-Jul-22 07:31N 37°57' E 023°38'0 0.0
2016-Jul-22 04:31N 37°57' E 023°38'0 0.0
2016-Jul-22 03:33N 37°57' E 023°38'1515.5
2016-Jul-22 02:33N 37°42' E 023°45'2121.4
2016-Jul-22 01:34N 37°22' E 023°54'2121.4
2016-Jul-22 00:34N 37°02' E 024°04'18 0.7
2016-Jul-20 21:05N 37°19' E 023°53'1121.6
2016-Jul-20 20:33N 37°29' E 023°48'2121.6
2016-Jul-20 19:33N 37°49' E 023°37'8 7.7
2016-Jul-20 18:31N 37°57' E 023°38'0 0.0
2016-Jul-20 17:31N 37°57' E 023°38'0 0.0
2016-Jul-20 16:31N 37°57' E 023°38'0 0.0
2016-Jul-20 15:31N 37°57' E 023°38'0 0.0
2016-Jul-20 14:31N 37°57' E 023°38'0 0.0
2016-Jul-20 13:31N 37°57' E 023°38'0 0.0
2016-Jul-20 12:31N 37°57' E 023°38'0 0.0
2016-Jul-20 11:31N 37°57' E 023°38'0 0.0
2016-Jul-20 10:31N 37°57' E 023°38'0 0.0
2016-Jul-20 09:31N 37°57' E 023°38'0 0.0
2016-Jul-20 08:31N 37°57' E 023°38'0 0.0
2016-Jul-20 07:31N 37°57' E 023°38'0 0.0
2016-Jul-20 06:31N 37°57' E 023°38'0 0.0
2016-Jul-20 05:31N 37°57' E 023°38'0 0.0
2016-Jul-20 04:32N 37°57' E 023°38'0 0.5
2016-Jul-20 03:34N 37°56' E 023°38'1817.6
2016-Jul-20 02:34N 37°40' E 023°46'2120.9
2016-Jul-20 01:33N 37°20' E 023°56'916.3
2016-Jul-20 01:00N 37°12' E 024°00'72 3.0 030 / 251005.910.8 25.518.926.0
2016-Jul-19 01:00N 36°06' E 024°36'9220.6 360 / 201008.910.8 25.020.026.0
2016-Jul-18 20:33N 37°29' E 023°48'2121.4
2016-Jul-18 19:34N 37°49' E 023°37'8 8.0
2016-Jul-18 18:33N 37°57' E 023°38'0 0.0
2016-Jul-18 17:31N 37°57' E 023°38'0 0.0
2016-Jul-18 16:31N 37°57' E 023°38'0 0.0
2016-Jul-18 15:31N 37°57' E 023°38'0 0.0
2016-Jul-18 14:31N 37°57' E 023°38'0 0.0
2016-Jul-18 13:31N 37°57' E 023°38'0 0.0
2016-Jul-18 12:31N 37°57' E 023°38'0 0.0
2016-Jul-18 11:31N 37°57' E 023°38'0 0.0
2016-Jul-18 10:31N 37°57' E 023°38'0 0.0
2016-Jul-18 09:31N 37°57' E 023°38'0 0.0
2016-Jul-18 08:31N 37°57' E 023°38'0 0.0
2016-Jul-18 07:31N 37°57' E 023°38'0 0.0
2016-Jul-18 06:31N 37°57' E 023°38'0 0.0
2016-Jul-18 05:31N 37°57' E 023°38'0 0.0
2016-Jul-18 04:28N 37°57' E 023°38'1 1.6
2016-Jul-18 03:33N 37°56' E 023°37'1918.6
2016-Jul-18 02:34N 37°39' E 023°47'2121.3
2016-Jul-18 01:33N 37°19' E 023°55'2 0.1
2016-Jul-16 21:12N 37°17' E 023°54'1421.8
2016-Jul-16 20:33N 37°30' E 023°48'2221.6
2016-Jul-16 19:34N 37°50' E 023°37'7 6.8
2016-Jul-16 18:33N 37°57' E 023°38'0 0.0
2016-Jul-16 17:33N 37°57' E 023°38'0 0.0
2016-Jul-16 16:33N 37°57' E 023°38'2 2.4
2016-Jul-16 15:34N 37°54' E 023°38'2323.4
2016-Jul-16 14:34N 37°32' E 023°49'3224.9
2016-Jul-16 13:17N 37°03' E 024°03'23 1.6
2016-Jul-15 23:10N 36°41' E 024°13'1321.6
2016-Jul-15 22:33N 36°53' E 024°07'1818.3
2016-Jul-15 21:34N 37°10' E 023°58'2121.2
2016-Jul-15 20:34N 37°30' E 023°48'2121.3
2016-Jul-15 19:34N 37°49' E 023°37'8 7.6
2016-Jul-15 18:33N 37°57' E 023°38'0 0.0
2016-Jul-15 17:33N 37°57' E 023°38'0 0.0
2016-Jul-15 16:33N 37°57' E 023°38'0 0.0
2016-Jul-15 15:33N 37°57' E 023°38'0 0.0
2016-Jul-15 14:33N 37°57' E 023°38'0 0.0
2016-Jul-15 13:33N 37°57' E 023°38'0 0.0
2016-Jul-15 12:33N 37°57' E 023°38'0 0.0
2016-Jul-15 11:33N 37°57' E 023°38'0 0.0
2016-Jul-15 10:33N 37°57' E 023°38'0 0.0
2016-Jul-15 09:33N 37°57' E 023°38'0 0.0
2016-Jul-15 08:33N 37°57' E 023°38'0 0.0
2016-Jul-15 07:33N 37°57' E 023°38'0 0.0
2016-Jul-15 06:33N 37°57' E 023°38'0 0.0
2016-Jul-15 05:30N 37°57' E 023°38'0 0.0
2016-Jul-15 04:33N 37°57' E 023°38'0 0.0
2016-Jul-15 03:33N 37°57' E 023°38'1414.0
2016-Jul-15 02:33N 37°43' E 023°44'2221.6
2016-Jul-15 01:33N 37°23' E 023°53'  
Track history (hours):
 
Tides and Currents Weather Stations Pressure Air Temp Water Temp Dewpoint Dewpoint Depression Visibility Wind Speed Wind Dir Waves Ship Positions

Knossos Palace

Last reported at 2016-Jul-25 01:00 UTC. Time now 2016-Jul-25 06:14 UTC.
Position N 36°06' E 024°36'.

Length 214 m; beam 26.4 m; draft 7.3 m.

Type: Ship. MMSI: 237641000.

Wind from 320 at 22 knots

Barometer 1007.9 mb
Air temperature 26.0 ° C
Visibility: greater than 10.8 NM
Dewpoint 21.8 ° C
Water temperature 26.0 ° C

Date/timePositionNaut miles runAvg speedWind from/ knotsBaromVisibWave heightAir tempDewpointWater temp
2016-Jul-25 01:00N 36°06' E 024°36'7821.0 320 / 221007.910.8 26.021.826.0
2016-Jul-24 21:16N 37°17' E 023°55'1521.1
2016-Jul-24 20:33N 37°31' E 023°47'2121.3
2016-Jul-24 19:33N 37°50' E 023°37'6 6.4
2016-Jul-24 18:33N 37°57' E 023°38'0 0.0
2016-Jul-24 17:33N 37°57' E 023°38'0 0.0
2016-Jul-24 16:33N 37°57' E 023°38'0 0.2
2016-Jul-24 15:33N 37°56' E 023°38'1717.1
2016-Jul-24 14:33N 37°40' E 023°46'3623.1
2016-Jul-24 13:00N 37°06' E 024°00'67 5.5 030 / 201008.910.8 27.519.627.0
2016-Jul-24 01:00N 36°06' E 024°36'7921.0 290 / 121010.910.8 25.022.226.0
2016-Jul-23 21:13N 37°18' E 023°54'1420.9
2016-Jul-23 20:33N 37°31' E 023°47'2120.7
2016-Jul-23 19:33N 37°50' E 023°37'7 7.2
2016-Jul-23 18:34N 37°57' E 023°38'0 0.0
2016-Jul-23 17:31N 37°57' E 023°38'0 0.0
2016-Jul-23 16:31N 37°57' E 023°38'0 0.0
2016-Jul-23 15:33N 37°57' E 023°38'1616.5
2016-Jul-23 14:34N 37°41' E 023°45'2524.8
2016-Jul-23 13:33N 37°18' E 023°55'7 0.4
2016-Jul-22 21:33N 37°11' E 023°57'2121.0
2016-Jul-22 20:33N 37°30' E 023°48'2120.9
2016-Jul-22 19:33N 37°49' E 023°37'7 7.4
2016-Jul-22 18:34N 37°57' E 023°38'0 0.0
2016-Jul-22 17:31N 37°57' E 023°38'0 0.0
2016-Jul-22 16:31N 37°57' E 023°38'0 0.0
2016-Jul-22 15:31N 37°57' E 023°38'0 0.0
2016-Jul-22 14:31N 37°57' E 023°38'0 0.0
2016-Jul-22 13:32N 37°57' E 023°38'0 0.0
2016-Jul-22 12:31N 37°57' E 023°38'0 0.0
2016-Jul-22 11:31N 37°57' E 023°38'0 0.0
2016-Jul-22 10:31N 37°57' E 023°38'0 0.0
2016-Jul-22 09:31N 37°57' E 023°38'0 0.0
2016-Jul-22 08:31N 37°57' E 023°38'0 0.0
2016-Jul-22 07:31N 37°57' E 023°38'0 0.0
2016-Jul-22 04:31N 37°57' E 023°38'0 0.0
2016-Jul-22 03:33N 37°57' E 023°38'1515.5
2016-Jul-22 02:33N 37°42' E 023°45'2121.4
2016-Jul-22 01:34N 37°22' E 023°54'2121.4
2016-Jul-22 00:34N 37°02' E 024°04'18 0.7
2016-Jul-20 21:05N 37°19' E 023°53'1121.6
2016-Jul-20 20:33N 37°29' E 023°48'2121.6
2016-Jul-20 19:33N 37°49' E 023°37'8 7.7
2016-Jul-20 18:31N 37°57' E 023°38'0 0.0
2016-Jul-20 17:31N 37°57' E 023°38'0 0.0
2016-Jul-20 16:31N 37°57' E 023°38'0 0.0
2016-Jul-20 15:31N 37°57' E 023°38'0 0.0
2016-Jul-20 14:31N 37°57' E 023°38'0 0.0
2016-Jul-20 13:31N 37°57' E 023°38'0 0.0
2016-Jul-20 12:31N 37°57' E 023°38'0 0.0
2016-Jul-20 11:31N 37°57' E 023°38'0 0.0
2016-Jul-20 10:31N 37°57' E 023°38'0 0.0
2016-Jul-20 09:31N 37°57' E 023°38'0 0.0
2016-Jul-20 08:31N 37°57' E 023°38'0 0.0
2016-Jul-20 07:31N 37°57' E 023°38'0 0.0
2016-Jul-20 06:31N 37°57' E 023°38'0 0.0
2016-Jul-20 05:31N 37°57' E 023°38'0 0.0
2016-Jul-20 04:32N 37°57' E 023°38'0 0.5
2016-Jul-20 03:34N 37°56' E 023°38'1817.6
2016-Jul-20 02:34N 37°40' E 023°46'2120.9
2016-Jul-20 01:33N 37°20' E 023°56'916.3
2016-Jul-20 01:00N 37°12' E 024°00'72 3.0 030 / 251005.910.8 25.518.926.0
2016-Jul-19 01:00N 36°06' E 024°36'9220.6 360 / 201008.910.8 25.020.026.0
2016-Jul-18 20:33N 37°29' E 023°48'2121.4
2016-Jul-18 19:34N 37°49' E 023°37'8 8.0
2016-Jul-18 18:33N 37°57' E 023°38'0 0.0
2016-Jul-18 17:31N 37°57' E 023°38'0 0.0
2016-Jul-18 16:31N 37°57' E 023°38'0 0.0
2016-Jul-18 15:31N 37°57' E 023°38'0 0.0
2016-Jul-18 14:31N 37°57' E 023°38'0 0.0
2016-Jul-18 13:31N 37°57' E 023°38'0 0.0
2016-Jul-18 12:31N 37°57' E 023°38'0 0.0
2016-Jul-18 11:31N 37°57' E 023°38'0 0.0
2016-Jul-18 10:31N 37°57' E 023°38'0 0.0
2016-Jul-18 09:31N 37°57' E 023°38'0 0.0
2016-Jul-18 08:31N 37°57' E 023°38'0 0.0
2016-Jul-18 07:31N 37°57' E 023°38'0 0.0
2016-Jul-18 06:31N 37°57' E 023°38'0 0.0
2016-Jul-18 05:31N 37°57' E 023°38'0 0.0
2016-Jul-18 04:28N 37°57' E 023°38'1 1.6
2016-Jul-18 03:33N 37°56' E 023°37'1918.6
2016-Jul-18 02:34N 37°39' E 023°47'2121.3
2016-Jul-18 01:33N 37°19' E 023°55'2 0.1
2016-Jul-16 21:12N 37°17' E 023°54'1421.8
2016-Jul-16 20:33N 37°30' E 023°48'2221.6
2016-Jul-16 19:34N 37°50' E 023°37'7 6.8
2016-Jul-16 18:33N 37°57' E 023°38'0 0.0
2016-Jul-16 17:33N 37°57' E 023°38'0 0.0
2016-Jul-16 16:33N 37°57' E 023°38'2 2.4
2016-Jul-16 15:34N 37°54' E 023°38'2323.4
2016-Jul-16 14:34N 37°32' E 023°49'3224.9
2016-Jul-16 13:17N 37°03' E 024°03'23 1.6
2016-Jul-15 23:10N 36°41' E 024°13'1321.6
2016-Jul-15 22:33N 36°53' E 024°07'1818.3
2016-Jul-15 21:34N 37°10' E 023°58'2121.2
2016-Jul-15 20:34N 37°30' E 023°48'2121.3
2016-Jul-15 19:34N 37°49' E 023°37'8 7.6
2016-Jul-15 18:33N 37°57' E 023°38'0 0.0
2016-Jul-15 17:33N 37°57' E 023°38'0 0.0
2016-Jul-15 16:33N 37°57' E 023°38'0 0.0
2016-Jul-15 15:33N 37°57' E 023°38'0 0.0
2016-Jul-15 14:33N 37°57' E 023°38'0 0.0
2016-Jul-15 13:33N 37°57' E 023°38'0 0.0
2016-Jul-15 12:33N 37°57' E 023°38'0 0.0
2016-Jul-15 11:33N 37°57' E 023°38'0 0.0
2016-Jul-15 10:33N 37°57' E 023°38'0 0.0
2016-Jul-15 09:33N 37°57' E 023°38'0 0.0
2016-Jul-15 08:33N 37°57' E 023°38'0 0.0
2016-Jul-15 07:33N 37°57' E 023°38'0 0.0
2016-Jul-15 06:33N 37°57' E 023°38'0 0.0
2016-Jul-15 05:30N 37°57' E 023°38'0 0.0
2016-Jul-15 04:33N 37°57' E 023°38'0 0.0
2016-Jul-15 03:33N 37°57' E 023°38'1414.0
2016-Jul-15 02:33N 37°43' E 023°44'2221.6
2016-Jul-15 01:33N 37°23' E 023°53'  

Dump ship's entire track history